Aktualne dane pomiarowe

Uwaga, wersja testowa! Automatyczne pobieranie danych za pomocą narzędzi lub skryptów to umożliwiających jest zabronione.

Dane meteo z obszaru Polski uzyskane na podstawie depesz SYNOP pobieranych co godzinę z NWS. Najedź myszką na symbol przedstawiony w tabeli, aby uzyskać informacje co do jego znaczenia. Prosimy pamiętać, że to testowa wersja strony, która jeszcze nie jest ukończona. Stworzono również jest krótki FAQ dotyczący korzystania z tej podstrony Anomalie temperatury w chwili obecnej odniesione są do okresu referencyjnego 1951-2016. Okres ten będzie później zmieniony na 1981-2010. Kliknij ikonę aby pobrać plik CSV. Kliknij ikonę aby wygenerować mapę synoptyczną dla danego terminu.

Wybierz Datę:    

        

Sandomierz (12585)

Dane terminowe dla wybranej stacji. Kliknij datę, aby otrzymać dane z tego terminu dla wszystkich stacji.

TemperaturaZachmurzenieWiatrCiśnienieOpadyPogoda
 Data t td wb tx tn tg rh  Nt Nl Cl Cm Ch ws wd g1 g2 wx mslp ppp ch 24h 12h t ww ww w1 w2  
2019-08-13 22:00:00 17.1 16.5 16.6--- 965.0--1wx--11015.3 989.5 -0.3---wx-----
2019-08-13 21:00:00 17.3 16.7 16.8--- 967.0--2wx---1015.5 989.7 0.1---wx-----
2019-08-13 20:00:00 18.0 16.8 17.1--- 938.0--2wx--21015.8 990.1 0.4---wx-----
2019-08-13 19:00:00 18.4 16.9 17.3--- 9113.0--2wx--21015.5 989.8 -0.2---------
2019-08-13 18:00:00 19.5 16.5 17.4 23.3 17.2- 8316.0--2wx--21015.2 989.6 -0.7- 0.212------
2019-08-13 17:00:00 21.3 16.3 17.9--- 7345.0--2wx--21015.1 989.7 0.1---------
2019-08-13 16:00:00 20.8 17.0 18.2--- 7923.0--2wx--21015.5 990.0 0.5---------
2019-08-13 15:00:00 21.6 16.8 18.3--- 7440.0--2wx--21015.7 990.3 0.2---------
2019-08-13 14:00:00 22.3 15.6 17.9--- 6640.0--2wx--21014.9 989.6 -1.0---------
2019-08-13 13:00:00 23.0 16.1 18.4--- 6530.0--3wx--31014.8 989.5 -1.0---------
2019-08-13 12:00:00 21.5 17.3 18.6--- 7745.0--2wx--21015.5 990.1 0.1- 0.26------
2019-08-13 11:00:00 20.3 16.5 17.7--- 7929.0--3wx--31016.1 990.6 0.6---------
2019-08-13 10:00:00 19.2 16.8 17.5--- 8624.0--3wx--31016.1 990.5 1.0---wx-----
2019-08-13 09:00:00 19.7 16.9 17.7--- 8430.0--3wx--31015.6 990.0 1.2---------
2019-08-13 08:00:00 18.3 17.0 17.4--- 9230.0--3wx--31015.7 990.0 1.9---------
2019-08-13 07:00:00 17.7 16.9 17.1--- 9525.0--2wx--21015.2 989.5 1.0---------
2019-08-13 06:00:00 17.2 16.6 16.7 26.6 16.8 17 9619.0--2wx-1321014.6 988.8 0.5 17.3 17.012----- 9.9
2019-08-13 05:00:00 16.9 16.6 16.7--- 9810.0--4wx--41013.9 988.1 2.2---wx-----
2019-08-13 04:00:00 17.1 16.8 16.9--- 986.0--4wx--41014.3 988.5 2.5---wx-----
2019-08-13 03:00:00 18.1 17.6 17.7--- 9716.0--2wx-1321014.0 988.3 2.1---wx-----
2019-08-13 02:00:00 18.9 18.1 18.3--- 958.0--3wx--31011.4 985.9 -0.9---wx-----
2019-08-13 01:00:00 19.0 18.0 18.3--- 9415.0--4wx---1011.5 986.0 -0.7---------
2019-08-13 00:00:00 19.1 18.4 18.6--- 9610.0--3wx-1931011.7 986.2 0.6--6------
2019-08-12 23:00:00 19.7 18.4 18.7--- 9225.0--4wx-1141012.3 986.8 0.5---------
2019-08-12 22:00:00 20.5 17.9 18.6--- 8550.0--6wx111961012.1 986.7 0.4---------
2019-08-12 21:00:00 22.2 18.4 19.5--- 7927.0--3wx--31010.8 985.6 -0.6---wx-----
2019-08-12 20:00:00 23.4 19.3 20.5--- 7819.0--3wx--31011.4 986.3 -0.1---------
2019-08-12 19:00:00 24.8 21.5 22.4--- 8215.0--1wx--11011.3 986.3 -0.5---------
2019-08-12 18:00:00 26.6 21.1 22.7 31.0 19.7- 7221.0--1wx--11011.1 986.2 -1.0- 0.012------
2019-08-12 17:00:00 28.3 21.3 23.4--- 6626.0--1wx---1011.1 986.4 -0.7---------
2019-08-12 16:00:00 29.0 20.7 23.3--- 6129.0--0---01011.5 986.8 -0.6---------
2019-08-12 15:00:00 28.5 21.0 23.3--- 6429.0--2wx--21011.9 987.2 -0.8---------
2019-08-12 14:00:00 30.7 18.8 22.8--- 4923.0--2wx--21011.7 987.1 -1.3---------
2019-08-12 13:00:00 30.9 19.6 23.3--- 5127.0--1wx--11011.9 987.4 -1.3---------
2019-08-12 12:00:00 29.6 19.6 22.8--- 5535.0--1wx--11012.7 988.0 -1.0- 0.06------
2019-08-12 11:00:00 28.9 19.0 22.2--- 5535.0--2wx--21013.1 988.4 -0.6---------
2019-08-12 10:00:00 27.3 20.4 22.5--- 6626.0--2wx---1013.6 988.7 -0.3---------
2019-08-12 09:00:00 25.6 19.9 21.6--- 7135.0--2wx--21014.0 989.0 -0.3---------
2019-08-12 08:00:00 23.4 18.9 20.2--- 7630.0--1wx--11014.2 989.0 -0.5---------
2019-08-12 07:00:00 21.3 17.9 18.9--- 8128.0--2wx--21014.4 989.0 -0.8---------
2019-08-12 06:00:00 19.7 16.7 17.6 22.9 16.4 16 8330.0--2wx--21014.8 989.3 -0.5- 0.012----- 12.5
2019-08-12 05:00:00 18.0 15.6 16.3--- 8630.0--2wx---1015.2 989.5 -0.2---------
2019-08-12 04:00:00 17.4 14.9 15.7--- 8530.0--2wx--21015.6 989.8 -0.8---------
2019-08-12 03:00:00 17.3 14.9 15.6--- 8635.0--2wx--21015.6 989.8 -0.8---------
2019-08-12 02:00:00 17.1 14.2 15.1--- 8329.0--2wx--21015.5 989.7 -1.1---------
2019-08-12 01:00:00 18.9 14.2 15.8--- 7440.0--2wx--21016.3 990.6 -0.5---------
2019-08-12 00:00:00 18.4 13.9 15.4--- 7545.0--2wx---1016.3 990.6 -0.6---------
2.0 ms

 

Print Friendly, PDF & Email